createdAt,value
2017-08-01T00:01:13.126Z,57.79
2017-08-01T00:03:39.510Z,59.24
2017-08-01T00:06:05.917Z,59.01
2017-08-01T00:08:32.274Z,58.63
2017-08-01T00:10:58.696Z,58.71
2017-08-01T00:13:25.264Z,59.06
2017-08-01T00:15:51.621Z,59.65
2017-08-01T00:18:18.007Z,60.26
2017-08-01T00:20:44.421Z,60.81
2017-08-01T00:23:10.793Z,61.67
2017-08-01T00:25:37.162Z,61.29
2017-08-01T00:28:03.703Z,61.80
2017-08-01T00:30:30.276Z,62.40
2017-08-01T00:32:56.699Z,63.70
2017-08-01T00:35:23.212Z,62.81
2017-08-01T00:37:49.636Z,62.10
2017-08-01T00:40:16.018Z,61.24
2017-08-01T00:42:42.448Z,62.49
2017-08-01T00:45:09.057Z,61.91
2017-08-01T00:47:35.419Z,62.54
2017-08-01T00:50:01.812Z,62.70
2017-08-01T00:52:28.273Z,61.85
2017-08-01T00:54:54.649Z,61.52
2017-08-01T00:57:21.075Z,61.54
2017-08-01T00:59:47.846Z,61.59
2017-08-01T01:02:14.258Z,61.39
2017-08-01T01:04:40.802Z,62.16
2017-08-01T01:07:07.184Z,61.53
2017-08-01T01:09:33.546Z,61.56
2017-08-01T01:11:59.918Z,62.15
2017-08-01T01:14:26.537Z,63.22
2017-08-01T01:16:52.935Z,63.63
2017-08-01T01:19:19.320Z,62.48
2017-08-01T01:21:45.709Z,62.21
2017-08-01T01:24:12.102Z,63.09
2017-08-01T01:26:38.468Z,62.02
2017-08-01T01:29:04.959Z,62.41
2017-08-01T01:31:31.663Z,61.89
2017-08-01T01:33:58.074Z,61.88
2017-08-01T01:36:24.504Z,61.60
2017-08-01T01:38:50.927Z,62.94
2017-08-01T01:41:17.658Z,63.57
2017-08-01T01:43:44.088Z,63.72
2017-08-01T01:46:10.498Z,62.69
2017-08-01T01:48:36.957Z,63.13
2017-08-01T01:51:03.406Z,63.54
2017-08-01T01:53:29.841Z,63.14
2017-08-01T01:55:56.220Z,63.42
2017-08-01T01:58:22.603Z,63.12
2017-08-01T02:00:49.024Z,63.85
2017-08-01T02:03:15.415Z,63.22
2017-08-01T02:05:41.808Z,63.91
2017-08-01T02:08:08.241Z,64.61
2017-08-01T02:10:34.632Z,64.66
2017-08-01T02:13:01.031Z,63.64
2017-08-01T02:15:27.425Z,63.70
2017-08-01T02:17:53.811Z,63.23
2017-08-01T02:20:21.020Z,63.10
2017-08-01T02:22:47.539Z,65.11
2017-08-01T02:25:14.033Z,65.41
2017-08-01T02:27:40.431Z,65.68
2017-08-01T02:30:06.831Z,64.64
2017-08-01T02:32:33.218Z,64.53
2017-08-01T02:34:59.640Z,64.25
2017-08-01T02:37:26.090Z,64.50
2017-08-01T02:39:52.465Z,63.77
2017-08-01T02:42:18.860Z,64.23
2017-08-01T02:44:45.246Z,64.56
2017-08-01T02:47:11.603Z,64.75
2017-08-01T02:49:38.009Z,64.93
2017-08-01T02:52:04.397Z,64.46
2017-08-01T02:54:30.832Z,65.31
2017-08-01T02:56:57.219Z,65.88
2017-08-01T02:59:23.675Z,66.44
2017-08-01T03:01:50.057Z,65.29
2017-08-01T03:04:16.454Z,65.41
2017-08-01T03:06:42.833Z,64.24
2017-08-01T03:09:09.198Z,65.05
2017-08-01T03:11:35.576Z,65.03
2017-08-01T03:14:01.943Z,66.21
2017-08-01T03:16:28.355Z,66.62
2017-08-01T03:18:54.740Z,65.44
2017-08-01T03:21:21.517Z,64.99
2017-08-01T03:23:47.911Z,65.35
2017-08-01T03:26:14.292Z,64.87
2017-08-01T03:28:40.679Z,64.63
2017-08-01T03:31:07.061Z,64.82
2017-08-01T03:33:33.462Z,66.37
2017-08-01T03:35:59.840Z,66.44
2017-08-01T03:38:26.236Z,65.28
2017-08-01T03:40:52.649Z,65.96
2017-08-01T03:43:19.002Z,66.72
2017-08-01T03:45:45.366Z,66.09
2017-08-01T03:48:11.769Z,65.39
2017-08-01T03:50:38.153Z,66.12
2017-08-01T03:53:04.507Z,66.15
2017-08-01T03:55:30.891Z,65.58
2017-08-01T03:57:57.282Z,65.96
2017-08-01T04:00:23.659Z,67.00
2017-08-01T04:02:50.072Z,67.13
2017-08-01T04:05:16.504Z,66.95
2017-08-01T04:07:42.930Z,66.15
2017-08-01T04:10:09.378Z,65.31
2017-08-01T04:12:35.794Z,65.44
2017-08-01T04:15:02.205Z,64.91
2017-08-01T04:17:28.567Z,65.74
2017-08-01T04:19:55.007Z,66.33
2017-08-01T04:22:21.407Z,66.11
2017-08-01T04:24:47.915Z,67.35
2017-08-01T04:27:14.323Z,66.87
2017-08-01T04:29:40.686Z,66.04
2017-08-01T04:32:07.061Z,65.76
2017-08-01T04:34:33.459Z,66.66
2017-08-01T04:36:59.828Z,66.13
2017-08-01T04:39:26.217Z,67.11
2017-08-01T04:41:52.600Z,68.17
2017-08-01T04:44:19.058Z,69.24
2017-08-01T04:46:45.467Z,67.99
2017-08-01T04:49:11.864Z,66.72
2017-08-01T04:51:38.250Z,66.39
2017-08-01T04:54:04.631Z,66.06
2017-08-01T04:56:31.004Z,66.63
2017-08-01T04:58:57.369Z,67.69
2017-08-01T05:01:23.749Z,68.19
2017-08-01T05:03:50.189Z,66.97
2017-08-01T05:06:16.615Z,67.86
2017-08-01T05:08:42.978Z,66.97
2017-08-01T05:11:09.385Z,66.63
2017-08-01T05:13:36.855Z,66.09
2017-08-01T05:16:03.237Z,66.66
2017-08-01T05:18:29.625Z,66.46
2017-08-01T05:20:56.011Z,66.70
2017-08-01T05:23:23.280Z,66.96
2017-08-01T05:25:49.704Z,67.07
2017-08-01T05:28:16.148Z,67.25
2017-08-01T05:30:42.532Z,67.44
2017-08-01T05:33:08.922Z,67.72
2017-08-01T05:35:35.305Z,68.37
2017-08-01T05:38:01.674Z,68.58
2017-08-01T05:40:28.097Z,68.87
2017-08-01T05:42:54.536Z,68.96
2017-08-01T05:45:20.897Z,68.66
2017-08-01T05:47:47.287Z,68.16
2017-08-01T05:50:13.661Z,68.69
2017-08-01T05:52:40.083Z,69.11
2017-08-01T05:55:06.451Z,68.51
2017-08-01T05:57:32.840Z,67.99
2017-08-01T05:59:59.265Z,68.09
2017-08-01T06:02:25.654Z,68.10
2017-08-01T06:04:52.027Z,68.08
2017-08-01T06:07:18.413Z,67.81
2017-08-01T06:09:44.799Z,67.82
2017-08-01T06:12:11.182Z,67.70
2017-08-01T06:14:37.612Z,68.51
2017-08-01T06:17:04.005Z,68.92
2017-08-01T06:19:30.388Z,67.80
2017-08-01T06:21:56.762Z,68.25
2017-08-01T06:24:23.199Z,68.55
2017-08-01T06:26:49.640Z,68.82
2017-08-01T06:29:16.015Z,68.81
2017-08-01T06:31:42.428Z,69.17
2017-08-01T06:34:08.805Z,69.62
2017-08-01T06:36:35.197Z,69.45
2017-08-01T06:39:01.581Z,69.44
2017-08-01T06:41:28.005Z,70.38
2017-08-01T06:43:54.385Z,69.72
2017-08-01T06:46:20.735Z,69.03
2017-08-01T06:48:47.110Z,69.31
2017-08-01T06:51:13.492Z,69.29
2017-08-01T06:53:39.882Z,69.39
2017-08-01T06:56:06.280Z,69.06
2017-08-01T06:58:32.668Z,69.23
2017-08-01T07:00:59.077Z,68.61
2017-08-01T07:03:25.481Z,68.73
2017-08-01T07:05:51.854Z,68.55
2017-08-01T07:08:18.243Z,68.70
2017-08-01T07:10:44.604Z,69.07
2017-08-01T07:13:11.051Z,68.58
2017-08-01T07:15:37.441Z,68.31
2017-08-01T07:18:03.854Z,68.14
2017-08-01T07:20:30.254Z,68.23
2017-08-01T07:22:56.636Z,67.96
2017-08-01T07:25:23.013Z,68.25
2017-08-01T07:27:49.416Z,68.04
2017-08-01T07:30:15.801Z,68.71
2017-08-01T07:32:42.157Z,68.56
2017-08-01T07:35:08.557Z,68.25
2017-08-01T07:37:34.938Z,68.00
2017-08-01T07:40:01.338Z,68.07
2017-08-01T07:42:27.729Z,67.53
2017-08-01T07:44:54.125Z,67.89
2017-08-01T07:47:20.513Z,67.67
2017-08-01T07:49:46.928Z,67.82
2017-08-01T07:52:13.316Z,68.63
2017-08-01T07:54:39.693Z,67.87
2017-08-01T07:57:06.068Z,68.08
2017-08-01T07:59:32.446Z,68.04
2017-08-01T08:01:58.829Z,67.82
2017-08-01T08:04:25.182Z,67.58
2017-08-01T08:06:51.533Z,67.29
2017-08-01T08:09:17.943Z,67.75
2017-08-01T08:11:44.325Z,67.64
2017-08-01T08:14:10.682Z,67.78
2017-08-01T08:16:37.068Z,68.15
2017-08-01T08:19:03.473Z,67.80
2017-08-01T08:21:29.868Z,67.80
2017-08-01T08:23:56.268Z,67.21
2017-08-01T08:26:22.679Z,66.86
2017-08-01T08:28:49.504Z,66.72
2017-08-01T08:31:15.888Z,66.31
2017-08-01T08:33:42.290Z,65.66
2017-08-01T08:36:08.728Z,65.60
2017-08-01T08:38:35.110Z,65.62
2017-08-01T08:41:01.524Z,66.18
2017-08-01T08:43:27.933Z,66.88
2017-08-01T08:45:54.348Z,67.23
2017-08-01T08:48:20.719Z,67.57
2017-08-01T08:50:47.122Z,67.33
2017-08-01T08:53:13.489Z,67.53
2017-08-01T08:55:39.899Z,67.42
2017-08-01T08:58:06.292Z,67.63
2017-08-01T09:00:32.730Z,67.67
2017-08-01T09:02:59.119Z,68.10
2017-08-01T09:05:25.489Z,68.13
2017-08-01T09:07:51.873Z,68.54
2017-08-01T09:10:18.256Z,68.22
2017-08-01T09:12:44.660Z,68.92
2017-08-01T09:15:11.015Z,68.69
2017-08-01T09:17:37.384Z,68.44
2017-08-01T09:20:03.774Z,67.29
2017-08-01T09:22:30.146Z,67.72
2017-08-01T09:24:56.537Z,67.31
2017-08-01T09:27:22.914Z,67.05
2017-08-01T09:29:49.293Z,67.38
2017-08-01T09:32:15.685Z,67.92
2017-08-01T09:34:42.041Z,67.83
2017-08-01T09:37:08.426Z,67.38
2017-08-01T09:39:34.814Z,67.40
2017-08-01T09:42:01.204Z,67.44
2017-08-01T09:44:27.580Z,67.49
2017-08-01T09:46:53.997Z,66.74
2017-08-01T09:49:20.402Z,67.50
2017-08-01T09:51:46.776Z,66.85
2017-08-01T09:54:13.168Z,66.32
2017-08-01T09:56:39.553Z,66.27
2017-08-01T09:59:05.960Z,65.73
2017-08-01T10:01:32.385Z,65.35
2017-08-01T10:03:58.774Z,65.46
2017-08-01T10:06:25.154Z,65.11
2017-08-01T10:08:51.534Z,64.50
2017-08-01T10:11:17.915Z,64.07
2017-08-01T10:13:44.301Z,63.34
2017-08-01T10:16:10.681Z,62.49
2017-08-01T10:18:37.065Z,62.68
2017-08-01T10:21:03.440Z,61.53
2017-08-01T10:23:29.828Z,61.07
2017-08-01T10:25:56.265Z,61.58
2017-08-01T10:28:22.663Z,60.84
2017-08-01T10:30:49.035Z,61.19
2017-08-01T10:33:15.401Z,60.97
2017-08-01T10:35:41.822Z,61.38
2017-08-01T10:38:08.188Z,61.53
2017-08-01T10:40:34.611Z,61.77
2017-08-01T10:43:01.023Z,61.99
2017-08-01T10:45:27.393Z,62.17
2017-08-01T10:47:53.807Z,62.34
2017-08-01T10:50:20.189Z,61.97
2017-08-01T10:52:46.568Z,62.06
2017-08-01T10:55:12.968Z,62.05
2017-08-01T10:57:39.944Z,61.79
2017-08-01T11:00:06.342Z,61.98
2017-08-01T11:02:32.724Z,61.90
2017-08-01T11:04:59.075Z,61.72
2017-08-01T11:07:25.475Z,61.57
2017-08-01T11:09:51.851Z,61.88
2017-08-01T11:12:18.246Z,61.73
2017-08-01T11:14:44.650Z,61.46
2017-08-01T11:17:11.071Z,61.47
2017-08-01T11:19:37.445Z,61.45
2017-08-01T11:22:03.811Z,61.72
2017-08-01T11:24:30.197Z,62.03
2017-08-01T11:26:56.560Z,62.06
2017-08-01T11:29:23.579Z,62.02
2017-08-01T11:31:50.025Z,62.27
2017-08-01T11:34:16.430Z,61.90
2017-08-01T11:36:42.832Z,60.76
2017-08-01T11:39:09.187Z,60.04
2017-08-01T11:41:35.581Z,59.90
2017-08-01T11:44:01.961Z,59.91
2017-08-01T11:46:28.344Z,60.21
2017-08-01T11:48:54.752Z,60.40
2017-08-01T11:51:21.146Z,60.41
2017-08-01T11:53:47.527Z,60.60
2017-08-01T11:56:13.949Z,61.12
2017-08-01T11:58:40.393Z,61.05
2017-08-01T12:01:06.897Z,61.11
2017-08-01T12:03:33.272Z,60.98
2017-08-01T12:05:59.654Z,60.98
2017-08-01T12:08:26.006Z,60.96
2017-08-01T12:10:52.393Z,61.15
2017-08-01T12:13:18.776Z,60.93
2017-08-01T12:15:45.156Z,60.95
2017-08-01T12:18:11.557Z,61.01
2017-08-01T12:20:37.937Z,60.93
2017-08-01T12:23:04.311Z,61.06
2017-08-01T12:25:30.711Z,61.01
2017-08-01T12:27:57.046Z,60.87
2017-08-01T12:30:23.430Z,60.81
2017-08-01T12:32:49.856Z,61.02
2017-08-01T12:35:16.236Z,61.20
2017-08-01T12:37:42.633Z,61.19
2017-08-01T12:40:09.017Z,61.20
2017-08-01T12:42:35.400Z,61.01
2017-08-01T12:45:01.781Z,61.31
2017-08-01T12:47:28.190Z,60.69
2017-08-01T12:49:54.639Z,61.66
2017-08-01T12:52:21.117Z,61.97
2017-08-01T12:54:47.886Z,62.36
2017-08-01T12:57:14.281Z,62.51
2017-08-01T12:59:40.679Z,62.27
2017-08-01T13:02:07.093Z,62.44
2017-08-01T13:04:33.491Z,61.97
2017-08-01T13:06:59.875Z,61.43
2017-08-01T13:09:26.245Z,61.50
2017-08-01T13:11:52.631Z,61.44
2017-08-01T13:14:19.039Z,61.77
2017-08-01T13:16:45.430Z,61.60
2017-08-01T13:19:11.853Z,61.19
2017-08-01T13:21:38.240Z,61.01
2017-08-01T13:24:04.627Z,60.49
2017-08-01T13:26:31.025Z,60.44
2017-08-01T13:28:57.405Z,60.51
2017-08-01T13:31:23.782Z,60.86
2017-08-01T13:33:50.199Z,61.03
2017-08-01T13:36:16.595Z,61.34
2017-08-01T13:38:42.974Z,61.09
2017-08-01T13:41:09.394Z,61.01
2017-08-01T13:43:35.787Z,60.80
2017-08-01T13:46:03.793Z,60.17
2017-08-01T13:48:30.197Z,60.08
2017-08-01T13:50:56.574Z,59.40
2017-08-01T13:53:22.997Z,58.82
2017-08-01T13:55:49.384Z,58.61
2017-08-01T13:58:15.756Z,58.84
2017-08-01T14:00:42.158Z,59.03
2017-08-01T14:03:08.531Z,59.49
2017-08-01T14:05:34.895Z,59.70
2017-08-01T14:08:01.277Z,60.01
2017-08-01T14:10:27.700Z,60.19
2017-08-01T14:12:54.138Z,60.90
2017-08-01T14:15:20.511Z,61.43
2017-08-01T14:17:46.889Z,60.93
2017-08-01T14:20:13.301Z,60.96
2017-08-01T14:22:39.693Z,60.70
2017-08-01T14:25:06.104Z,60.22
2017-08-01T14:27:32.508Z,60.01
2017-08-01T14:29:58.897Z,59.43
2017-08-01T14:32:25.262Z,59.50
2017-08-01T14:34:51.690Z,59.93
2017-08-01T14:37:18.121Z,59.41
2017-08-01T14:39:44.526Z,59.48
2017-08-01T14:42:10.918Z,59.81
2017-08-01T14:44:37.321Z,59.73
2017-08-01T14:47:03.695Z,59.59
2017-08-01T14:49:30.089Z,59.59
2017-08-01T14:51:56.453Z,59.52
2017-08-01T14:54:22.818Z,59.21
2017-08-01T14:56:49.267Z,58.80
2017-08-01T14:59:15.652Z,58.25
2017-08-01T15:01:42.088Z,58.60
2017-08-01T15:04:08.457Z,57.72
2017-08-01T15:06:34.858Z,58.33
2017-08-01T15:09:01.254Z,58.23
2017-08-01T15:11:27.616Z,57.23
2017-08-01T15:13:54.001Z,57.68
2017-08-01T15:16:20.361Z,57.48
2017-08-01T15:18:46.707Z,57.70
2017-08-01T15:21:13.072Z,56.48
2017-08-01T15:23:39.451Z,56.36
2017-08-01T15:26:05.868Z,56.22
2017-08-01T15:28:32.244Z,56.95
2017-08-01T15:30:58.620Z,56.73
2017-08-01T15:33:25.040Z,56.64
2017-08-01T15:35:51.481Z,54.70
2017-08-01T15:38:17.847Z,54.15
2017-08-01T15:40:44.226Z,54.44
2017-08-01T15:43:10.593Z,54.41
2017-08-01T15:45:36.968Z,54.59
2017-08-01T15:48:03.355Z,54.25
2017-08-01T15:50:29.745Z,53.61
2017-08-01T15:52:56.254Z,52.76
2017-08-01T15:55:22.672Z,53.23
2017-08-01T15:57:49.719Z,53.67
2017-08-01T16:00:16.255Z,53.88
2017-08-01T16:02:42.649Z,54.16
2017-08-01T16:05:09.044Z,54.38
2017-08-01T16:07:35.949Z,54.01
2017-08-01T16:10:02.387Z,54.20
2017-08-01T16:12:28.790Z,55.04
2017-08-01T16:14:55.203Z,54.30
2017-08-01T16:17:21.660Z,54.67
2017-08-01T16:19:48.506Z,54.81
2017-08-01T16:22:15.554Z,55.34
2017-08-01T16:24:41.948Z,55.98
2017-08-01T16:27:08.397Z,56.19
2017-08-01T16:29:35.081Z,56.91
2017-08-01T16:32:02.107Z,56.59
2017-08-01T16:34:28.522Z,56.71
2017-08-01T16:36:54.911Z,56.81
2017-08-01T16:39:21.292Z,57.27
2017-08-01T16:41:47.663Z,57.38
2017-08-01T16:44:14.053Z,57.25
2017-08-01T16:46:40.445Z,57.33
2017-08-01T16:49:06.832Z,57.74
2017-08-01T16:51:33.254Z,57.79
2017-08-01T16:53:59.663Z,57.60
2017-08-01T16:56:26.083Z,57.76
2017-08-01T16:58:52.478Z,57.64
2017-08-01T17:01:18.919Z,57.72
2017-08-01T17:03:45.348Z,57.78
2017-08-01T17:06:11.778Z,58.04
2017-08-01T17:08:38.181Z,58.35
2017-08-01T17:11:04.797Z,58.30
2017-08-01T17:13:31.222Z,58.23
2017-08-01T17:15:58.130Z,58.56
2017-08-01T17:18:24.973Z,58.33
2017-08-01T17:20:51.339Z,58.76
2017-08-01T17:23:17.749Z,58.93
2017-08-01T17:25:44.153Z,59.20
2017-08-01T17:28:10.523Z,59.28
2017-08-01T17:30:36.889Z,59.61
2017-08-01T17:33:03.361Z,59.97
2017-08-01T17:35:29.900Z,60.15
2017-08-01T17:37:56.347Z,60.37
2017-08-01T17:40:22.769Z,60.33
2017-08-01T17:42:49.149Z,60.41
2017-08-01T17:45:15.506Z,60.54
2017-08-01T17:47:41.939Z,60.34
2017-08-01T17:50:08.362Z,60.14
2017-08-01T17:52:34.782Z,60.28
2017-08-01T17:55:01.153Z,60.19
2017-08-01T17:57:27.564Z,60.05
2017-08-01T17:59:53.977Z,60.01
2017-08-01T18:02:20.349Z,60.09
2017-08-01T18:04:46.803Z,60.12
2017-08-01T18:07:13.191Z,60.12
2017-08-01T18:09:39.558Z,60.22
2017-08-01T18:12:05.951Z,60.19
2017-08-01T18:14:32.369Z,60.59
2017-08-01T18:16:58.783Z,60.58
2017-08-01T18:19:25.186Z,60.47
2017-08-01T18:21:51.785Z,60.80
2017-08-01T18:24:18.188Z,60.84
2017-08-01T18:26:44.624Z,61.26
2017-08-01T18:29:11.012Z,61.01
2017-08-01T18:31:37.391Z,61.34
2017-08-01T18:34:03.777Z,61.78
2017-08-01T18:36:30.157Z,62.08
2017-08-01T18:38:56.541Z,62.02
2017-08-01T18:41:22.898Z,62.03
2017-08-01T18:43:49.252Z,61.95
2017-08-01T18:46:15.989Z,61.73
2017-08-01T18:48:42.418Z,61.67
2017-08-01T18:51:08.867Z,61.55
2017-08-01T18:53:35.266Z,61.45
2017-08-01T18:56:01.661Z,61.73
2017-08-01T18:58:28.098Z,61.45
2017-08-01T19:00:54.744Z,62.06
2017-08-01T19:03:21.105Z,62.19
2017-08-01T19:05:47.537Z,62.21
2017-08-01T19:08:13.889Z,62.20
2017-08-01T19:10:40.273Z,62.85
2017-08-01T19:13:06.678Z,62.67
2017-08-01T19:15:33.065Z,62.16
2017-08-01T19:17:59.442Z,61.77
2017-08-01T19:20:25.818Z,63.40
2017-08-01T19:22:52.403Z,63.58
2017-08-01T19:25:18.813Z,63.33
2017-08-01T19:27:45.224Z,64.00
2017-08-01T19:30:11.697Z,63.91
2017-08-01T19:32:38.161Z,63.58
2017-08-01T19:35:04.548Z,63.37
2017-08-01T19:37:30.935Z,64.16
2017-08-01T19:39:57.318Z,64.58
2017-08-01T19:42:23.802Z,64.00
2017-08-01T19:44:50.305Z,63.71
2017-08-01T19:47:16.793Z,63.79
2017-08-01T19:49:43.208Z,63.14
2017-08-01T19:52:09.634Z,64.14
2017-08-01T19:54:36.068Z,64.12
2017-08-01T19:57:02.815Z,64.18
2017-08-01T19:59:29.243Z,64.53
2017-08-01T20:01:55.682Z,64.12
2017-08-01T20:04:22.539Z,63.71
2017-08-01T20:06:49.055Z,63.49
2017-08-01T20:09:15.480Z,63.97
2017-08-01T20:11:41.876Z,64.34
2017-08-01T20:14:08.297Z,63.87
2017-08-01T20:16:34.725Z,64.27
2017-08-01T20:19:01.154Z,64.59
2017-08-01T20:21:27.552Z,64.50
2017-08-01T20:23:53.954Z,65.06
2017-08-01T20:26:20.377Z,64.64
2017-08-01T20:28:46.775Z,64.72
2017-08-01T20:31:13.138Z,64.46
2017-08-01T20:33:39.604Z,64.87
2017-08-01T20:36:06.052Z,65.70
2017-08-01T20:38:32.500Z,64.47
2017-08-01T20:40:58.906Z,64.63
2017-08-01T20:43:25.337Z,64.74
2017-08-01T20:45:51.805Z,64.78
2017-08-01T20:48:18.193Z,64.84
2017-08-01T20:50:44.584Z,65.02
2017-08-01T20:53:10.975Z,65.19
2017-08-01T20:55:37.373Z,65.20
2017-08-01T20:58:03.789Z,64.71
2017-08-01T21:00:30.209Z,64.77
2017-08-01T21:02:56.630Z,65.01
2017-08-01T21:05:23.016Z,65.41
2017-08-01T21:07:49.436Z,65.79
2017-08-01T21:10:15.858Z,66.22
2017-08-01T21:12:42.301Z,66.35
2017-08-01T21:15:08.710Z,66.06
2017-08-01T21:17:35.088Z,66.21
2017-08-01T21:20:01.489Z,66.41
2017-08-01T21:22:27.881Z,66.21
2017-08-01T21:24:54.269Z,67.06
2017-08-01T21:27:20.639Z,66.57
2017-08-01T21:29:47.036Z,66.08
2017-08-01T21:32:13.438Z,66.30
2017-08-01T21:34:39.829Z,67.43
2017-08-01T21:37:06.222Z,67.75
2017-08-01T21:39:32.651Z,67.05
2017-08-01T21:41:59.563Z,66.65
2017-08-01T21:44:26.000Z,67.05
2017-08-01T21:46:52.378Z,66.89
2017-08-01T21:49:18.781Z,65.91
2017-08-01T21:51:45.168Z,67.16
2017-08-01T21:54:11.556Z,68.05
2017-08-01T21:56:37.939Z,67.69
2017-08-01T21:59:04.334Z,67.77
2017-08-01T22:01:30.722Z,67.39
2017-08-01T22:03:57.127Z,67.38
2017-08-01T22:06:23.539Z,67.83
2017-08-01T22:08:49.974Z,67.68
2017-08-01T22:11:16.363Z,68.81
2017-08-01T22:13:42.807Z,68.76
2017-08-01T22:16:09.192Z,67.80
2017-08-01T22:18:35.592Z,66.89
2017-08-01T22:21:02.023Z,66.36
2017-08-01T22:23:28.438Z,66.76
2017-08-01T22:25:54.863Z,67.17
2017-08-01T22:28:21.286Z,66.90
2017-08-01T22:30:47.728Z,66.59
2017-08-01T22:33:14.143Z,67.29
2017-08-01T22:35:40.584Z,67.75
2017-08-01T22:38:07.169Z,67.28
2017-08-01T22:40:33.688Z,67.17
2017-08-01T22:43:04.405Z,68.17
2017-08-01T22:45:31.359Z,69.01
2017-08-01T22:47:57.799Z,69.28
2017-08-01T22:50:24.193Z,69.19
2017-08-01T22:52:50.621Z,69.80
2017-08-01T22:55:17.015Z,69.22
2017-08-01T22:57:43.895Z,67.77
2017-08-01T23:00:14.060Z,67.92
2017-08-01T23:02:41.405Z,67.28
2017-08-01T23:05:08.245Z,67.46
2017-08-01T23:10:33.757Z,67.12
2017-08-01T23:13:39.442Z,67.04
2017-08-01T23:19:21.440Z,67.17
2017-08-01T23:21:48.185Z,68.51
2017-08-01T23:24:14.768Z,68.19
2017-08-01T23:26:41.218Z,69.01
2017-08-01T23:29:08.745Z,69.41
2017-08-01T23:31:36.070Z,69.89
2017-08-01T23:34:02.465Z,69.15
2017-08-01T23:36:31.947Z,68.50
2017-08-01T23:38:58.379Z,68.35
2017-08-01T23:41:24.780Z,67.78
2017-08-01T23:43:51.207Z,67.01
2017-08-01T23:46:17.663Z,68.17
2017-08-01T23:48:45.369Z,68.34
2017-08-01T23:51:12.067Z,67.73
2017-08-01T23:53:38.530Z,68.16
2017-08-01T23:56:12.867Z,68.94
2017-08-01T23:59:03.566Z,68.68
